Cherry Hill, Arkansas
Current Conditions -  °F | °C
As of 9:53 PM on Sunday 21 Dec 2014 (Local Time) from KRUE Reporting Station
Overcast Overcast  
Wind Chill: 47°   Ceiling: 3900
Heat Index: 49°   Visibility: 10mi
Dew Point: 38°   Wind: 6mph
Humidity: 66%   Direction: 90°E
Pressure: 29.86"   Gusts: NA
Location:  34.9067°N, 93.0072°W
Report Text: KRUE 220353Z AUTO 09005KT 10SM OVC039 09/03 A2986 RMK AO2 SLP108 T00940033
Loading
Personal Weather Stations






























Interactive Weather Map New forecast layout! Learn more

10-Day Weather Forecast

Advertisements
Track Severe Weather on mobile